Time;durP1;ratioP1;P1;durP2;ratioP2;P2;SDS_P1;SDS_P2;PMS_P1;PMS_P2;Temp;Humidity;BMP_temperature;BMP_pressure;BME280_temperature;BME280_humidity;BME280_pressure;Samples;Min_cycle;Max_cycle;Signal;HPM_P1;HPM_P2
2023/01/09 00:00:30;;;;;;;26.80;10.70;;;;;;;1.77;43.09;101127.07;107558;1259;62029;-63
2023/01/09 00:02:56;;;;;;;25.50;11.30;;;;;;;1.62;43.22;101119.90;107438;1259;74010;-64
2023/01/09 00:05:24;;;;;;;23.40;9.00;;;;;;;1.89;42.94;101116.33;107449;1259;72942;-64
2023/01/09 00:07:50;;;;;;;17.90;6.60;;;;;;;1.72;43.36;101112.62;107514;1259;74991;-64
2023/01/09 00:10:17;;;;;;;27.90;10.10;;;;;;;1.62;43.75;101111.77;107688;1258;61600;-63
2023/01/09 00:12:44;;;;;;;26.70;11.40;;;;;;;1.72;42.78;101111.92;107497;1259;60409;-64
2023/01/09 00:15:11;;;;;;;35.20;12.40;;;;;;;2.06;43.34;101107.02;107450;1259;76212;-64
2023/01/09 00:17:38;;;;;;;32.30;13.10;;;;;;;2.16;43.67;101112.36;107598;1259;71677;-64
2023/01/09 00:20:06;;;;;;;28.20;10.90;;;;;;;2.17;42.64;101111.16;107583;1259;75223;-64
2023/01/09 00:22:33;;;;;;;24.20;9.70;;;;;;;2.05;43.19;101116.03;107518;1259;62775;-64
2023/01/09 00:25:00;;;;;;;33.30;8.30;;;;;;;2.16;42.30;101113.40;107553;1262;62361;-63
2023/01/09 00:27:31;;;;;;;34.50;11.30;;;;;;;2.12;42.07;101114.73;107524;1259;74821;-65
2023/01/09 00:29:58;;;;;;;22.90;9.10;;;;;;;2.39;41.30;101110.75;107573;1259;70689;-65
2023/01/09 00:32:25;;;;;;;26.90;11.30;;;;;;;2.45;40.92;101104.92;107550;1259;72917;-63
2023/01/09 00:34:52;;;;;;;31.40;12.50;;;;;;;2.45;41.83;101104.23;107785;1259;59781;-64
2023/01/09 00:37:19;;;;;;;31.90;11.90;;;;;;;2.51;41.52;101105.16;107615;1259;61213;-64
2023/01/09 00:39:46;;;;;;;31.30;13.00;;;;;;;2.78;42.16;101099.39;107718;1259;76071;-65
2023/01/09 00:42:15;;;;;;;33.30;12.40;;;;;;;2.81;40.98;101091.45;107673;1259;72302;-62
2023/01/09 00:44:51;;;;;;;28.00;11.90;;;;;;;3.05;40.13;101081.62;107541;1260;74826;-64
2023/01/09 00:47:27;;;;;;;28.40;10.80;;;;;;;3.30;40.00;101073.66;107541;1259;62050;-64
2023/01/09 00:49:54;;;;;;;15.50;7.30;;;;;;;2.99;40.08;101078.60;107536;1259;62565;-65
2023/01/09 00:52:21;;;;;;;26.60;12.00;;;;;;;2.61;40.24;101079.61;107455;1259;76305;-65
2023/01/09 00:54:48;;;;;;;29.40;10.80;;;;;;;2.65;40.19;101077.75;107558;1259;70143;-64
2023/01/09 00:57:14;;;;;;;29.10;11.70;;;;;;;2.78;40.33;101070.27;107589;1259;73807;-64
2023/01/09 00:59:42;;;;;;;25.10;9.00;;;;;;;2.82;39.79;101074.80;107542;1261;60349;-64
2023/01/09 01:02:08;;;;;;;18.90;8.00;;;;;;;2.71;39.47;101066.19;107473;1261;61875;-65
2023/01/09 01:07:41;;;;;;;25.90;11.10;;;;;;;2.90;40.26;101055.80;107560;1260;72794;-64
2023/01/09 01:10:15;;;;;;;28.00;11.60;;;;;;;3.39;39.61;101049.61;107442;1260;74762;-65
2023/01/09 01:12:42;;;;;;;16.40;8.30;;;;;;;3.14;39.75;101046.82;107462;1260;63019;-64
2023/01/09 01:15:10;;;;;;;31.60;11.70;;;;;;;3.06;40.38;101054.38;107563;1260;62333;-65
2023/01/09 01:17:37;;;;;;;25.10;9.30;;;;;;;3.81;38.81;101056.47;107733;1260;75556;-63
2023/01/09 01:20:07;;;;;;;24.80;10.30;;;;;;;3.63;39.13;101047.50;107448;1260;72413;-64
2023/01/09 01:22:34;;;;;;;34.10;11.40;;;;;;;3.94;39.32;101040.02;107512;1264;73962;-63
2023/01/09 01:25:01;;;;;;;29.40;11.10;;;;;;;3.63;38.11;101037.77;107581;1261;61644;-64
2023/01/09 01:27:28;;;;;;;31.10;9.40;;;;;;;3.69;38.23;101026.87;107544;1260;62746;-63
2023/01/09 01:29:55;;;;;;;28.20;11.10;;;;;;;3.16;38.11;101027.55;107638;1261;76206;-63
2023/01/09 01:32:22;;;;;;;31.90;9.40;;;;;;;3.13;38.39;101023.73;107566;1259;71414;-62
2023/01/09 01:34:49;;;;;;;21.40;8.50;;;;;;;3.00;38.42;101017.55;107436;1259;73551;-64
2023/01/09 01:37:16;;;;;;;32.80;11.80;;;;;;;3.11;38.49;101012.77;107427;1261;63107;-65
2023/01/09 01:39:42;;;;;;;23.30;8.20;;;;;;;3.45;37.80;101007.80;107557;1262;60372;-64
2023/01/09 01:42:13;;;;;;;28.30;9.30;;;;;;;3.04;38.24;100997.98;107475;1259;76320;-64
2023/01/09 01:45:06;;;;;;;27.50;9.80;;;;;;;3.12;38.85;100994.05;107486;1259;70583;-64
2023/01/09 01:47:39;;;;;;;26.00;10.60;;;;;;;2.74;38.75;100995.13;107473;1259;71966;-63
2023/01/09 01:50:14;;;;;;;20.30;7.50;;;;;;;3.01;38.60;100995.51;107509;1259;63352;-65
2023/01/09 01:52:44;;;;;;;23.40;8.80;;;;;;;2.32;38.96;100998.00;107497;1259;60997;-63
2023/01/09 01:55:10;;;;;;;21.60;7.20;;;;;;;2.19;39.07;100998.04;107571;1264;74139;-65
2023/01/09 01:57:40;;;;;;;22.70;8.50;;;;;;;2.52;39.06;100994.55;107450;1259;70495;-65
2023/01/09 02:00:07;;;;;;;23.00;8.80;;;;;;;2.68;38.33;100991.42;107469;1260;73507;-63
2023/01/09 02:02:34;;;;;;;24.80;9.30;;;;;;;2.61;38.71;100997.08;107586;1259;63831;-64
2023/01/09 02:05:03;;;;;;;17.40;8.70;;;;;;;2.76;38.67;101000.34;107568;1259;61533;-63
2023/01/09 02:07:30;;;;;;;13.90;6.00;;;;;;;2.78;39.33;100993.60;107634;1259;76349;-63
2023/01/09 02:09:57;;;;;;;23.00;9.10;;;;;;;2.81;38.06;100987.21;107499;1259;71875;-62
2023/01/09 02:12:25;;;;;;;24.30;8.80;;;;;;;3.43;38.05;100983.49;107609;1259;75318;-64
2023/01/09 02:15:05;;;;;;;22.60;8.80;;;;;;;2.98;38.35;100984.92;107573;1261;63418;-65
2023/01/09 02:18:27;;;;;;;24.10;9.50;;;;;;;2.93;37.66;100981.41;107484;1259;60952;-64
2023/01/09 02:20:57;;;;;;;25.00;9.50;;;;;;;3.38;37.91;100973.90;107097;1267;74294;-64
2023/01/09 02:23:52;;;;;;;19.60;7.10;;;;;;;3.44;37.69;100975.67;107584;1259;72668;-64
2023/01/09 02:26:19;;;;;;;27.40;9.70;;;;;;;3.14;37.32;100974.46;107668;1259;72525;-64
2023/01/09 02:28:58;;;;;;;25.40;10.10;;;;;;;3.52;36.60;100965.66;107623;1263;62270;-65
2023/01/09 02:31:48;;;;;;;31.50;11.70;;;;;;;4.36;35.24;100963.69;107636;1259;62624;-65
2023/01/09 02:34:27;;;;;;;18.40;7.80;;;;;;;3.77;35.46;100957.60;107533;1261;76065;-64
2023/01/09 02:37:03;;;;;;;19.30;8.20;;;;;;;3.91;35.32;100955.77;107589;1260;72654;-65
2023/01/09 02:39:38;;;;;;;25.00;9.90;;;;;;;4.03;35.96;100952.65;107616;1260;73877;-65
2023/01/09 02:42:10;;;;;;;22.90;9.30;;;;;;;4.68;35.19;100945.81;107617;1261;62108;-63
2023/01/09 02:44:36;;;;;;;25.20;10.00;;;;;;;3.84;35.10;100938.86;107672;1260;62451;-65
2023/01/09 02:47:28;;;;;;;20.40;8.30;;;;;;;3.78;36.54;100938.66;107509;1261;74978;-64
2023/01/09 02:49:57;;;;;;;29.80;11.00;;;;;;;4.34;35.30;100935.00;107632;1261;72299;-64
2023/01/09 02:52:57;;;;;;;21.00;8.90;;;;;;;4.50;34.87;100931.20;107602;1259;72424;-64
2023/01/09 02:55:27;;;;;;;28.60;11.60;;;;;;;4.69;36.26;100917.81;107568;1259;62307;-63
2023/01/09 02:58:15;;;;;;;23.20;9.50;;;;;;;4.46;34.67;100916.92;107549;1261;61287;-65
2023/01/09 03:00:57;;;;;;;28.70;11.70;;;;;;;4.01;35.02;100921.04;107669;1259;74779;-64
2023/01/09 03:03:31;;;;;;;24.20;10.20;;;;;;;4.27;35.07;100933.61;107711;1259;71921;-65
2023/01/09 03:06:10;;;;;;;24.10;10.40;;;;;;;3.81;35.43;100920.63;107708;1259;74679;-65
2023/01/09 03:08:40;;;;;;;21.50;8.90;;;;;;;3.63;35.96;100921.77;107644;1259;62837;-62
2023/01/09 03:11:07;;;;;;;28.90;7.90;;;;;;;3.32;36.79;100922.66;107477;1259;61307;-63
2023/01/09 03:13:45;;;;;;;19.80;8.90;;;;;;;3.26;37.32;100922.11;107567;1259;74956;-64
2023/01/09 03:16:15;;;;;;;25.00;8.40;;;;;;;3.09;37.72;100920.63;107467;1259;71268;-65
2023/01/09 03:18:41;;;;;;;20.50;7.10;;;;;;;3.22;37.75;100925.05;107458;1261;75048;-65
2023/01/09 03:21:08;;;;;;;21.60;8.90;;;;;;;3.49;37.56;100921.02;107573;1259;60337;-65
2023/01/09 03:23:54;;;;;;;26.50;11.00;;;;;;;3.73;38.58;100919.37;107568;1259;60616;-63
2023/01/09 03:26:21;;;;;;;15.60;8.00;;;;;;;3.58;38.89;100914.64;107547;1259;75593;-65
2023/01/09 03:28:48;;;;;;;26.00;9.60;;;;;;;3.33;38.53;100914.69;107492;1259;70842;-62
2023/01/09 03:31:15;;;;;;;17.30;7.80;;;;;;;3.97;38.52;100909.38;107482;1259;75033;-65
2023/01/09 03:33:42;;;;;;;31.30;9.10;;;;;;;3.49;38.96;100908.52;107513;1259;63557;-64
2023/01/09 03:36:10;;;;;;;21.10;8.30;;;;;;;3.47;39.41;100915.45;107597;1259;61280;-64
2023/01/09 03:38:37;;;;;;;16.80;6.60;;;;;;;3.62;40.25;100908.22;107558;1259;75123;-65
2023/01/09 03:41:04;;;;;;;22.30;9.60;;;;;;;3.49;40.25;100908.17;107485;1259;71569;-63
2023/01/09 03:43:30;;;;;;;16.10;6.80;;;;;;;3.68;41.14;100901.83;107560;1259;74448;-62
2023/01/09 03:45:57;;;;;;;19.20;8.30;;;;;;;4.35;39.79;100901.44;107518;1261;61951;-65
2023/01/09 03:48:24;;;;;;;18.60;7.30;;;;;;;4.77;38.78;100901.80;107560;1259;59578;-64
2023/01/09 03:50:51;;;;;;;21.10;8.50;;;;;;;4.00;40.07;100896.88;107693;1259;75661;-64
2023/01/09 03:53:19;;;;;;;16.30;7.50;;;;;;;4.19;40.29;100889.42;107719;1259;71254;-65
2023/01/09 03:55:47;;;;;;;20.60;8.70;;;;;;;4.58;39.55;100891.89;107518;1259;72865;-64
2023/01/09 03:58:14;;;;;;;22.70;7.90;;;;;;;4.33;39.92;100885.28;107697;1259;61971;-64
2023/01/09 04:00:41;;;;;;;13.00;5.60;;;;;;;3.82;41.19;100888.13;107728;1259;61238;-65
2023/01/09 04:03:08;;;;;;;24.60;8.00;;;;;;;3.87;41.74;100882.77;107637;1259;75863;-65
2023/01/09 04:05:35;;;;;;;20.10;9.20;;;;;;;4.04;41.44;100881.09;107659;1259;71436;-65
2023/01/09 04:08:01;;;;;;;16.70;6.50;;;;;;;4.43;40.88;100883.37;107550;1259;75020;-64
2023/01/09 04:10:28;;;;;;;19.00;8.10;;;;;;;3.97;42.08;100883.67;107714;1258;62059;-65
2023/01/09 04:12:55;;;;;;;27.30;8.70;;;;;;;4.20;41.82;100887.69;107684;1259;60329;-63
2023/01/09 04:15:22;;;;;;;20.70;9.20;;;;;;;4.42;42.08;100885.63;107654;1259;75496;-64
2023/01/09 04:17:49;;;;;;;21.70;10.10;;;;;;;4.74;41.11;100886.48;107675;1259;72168;-64
2023/01/09 04:20:16;;;;;;;25.90;9.40;;;;;;;4.66;41.48;100880.77;107589;1258;73459;-65
2023/01/09 04:22:43;;;;;;;17.90;8.30;;;;;;;4.43;41.88;100877.81;107812;1259;63282;-63
2023/01/09 04:25:10;;;;;;;20.40;10.20;;;;;;;4.25;42.46;100874.85;107640;1259;61188;-64
2023/01/09 04:27:37;;;;;;;18.50;8.00;;;;;;;4.15;42.97;100871.53;107486;1259;74143;-64
2023/01/09 04:30:04;;;;;;;24.70;10.40;;;;;;;3.44;44.73;100870.99;107708;1259;72532;-63
2023/01/09 04:32:31;;;;;;;25.70;10.90;;;;;;;3.79;44.55;100868.34;107683;1259;72871;-65
2023/01/09 04:34:58;;;;;;;25.70;10.80;;;;;;;3.61;45.22;100865.15;107646;1259;64126;-63
2023/01/09 04:37:25;;;;;;;19.50;8.30;;;;;;;3.36;45.87;100868.37;107599;1263;60327;-63
2023/01/09 04:39:54;;;;;;;30.20;11.60;;;;;;;3.31;46.25;100864.00;107620;1259;76062;-65
2023/01/09 04:42:22;;;;;;;24.70;11.10;;;;;;;3.67;45.59;100855.64;107669;1259;70967;-66
2023/01/09 04:44:52;;;;;;;24.70;9.90;;;;;;;3.67;45.77;100851.45;107597;1259;72542;-62
2023/01/09 04:47:19;;;;;;;;;;;;;;;3.70;46.06;100846.09;107601;1259;64185;-64
2023/01/09 04:49:46;;;;;;;19.60;8.40;;;;;;;3.59;46.34;100844.50;107657;1259;61042;-64
2023/01/09 04:52:13;;;;;;;19.80;8.30;;;;;;;3.65;47.29;100844.14;107601;1264;75111;-64
2023/01/09 04:54:40;;;;;;;26.10;10.40;;;;;;;3.30;48.33;100847.86;107743;1257;72423;-64
2023/01/09 04:57:07;;;;;;;25.70;11.00;;;;;;;4.05;46.57;100847.70;107608;1259;72262;-65
2023/01/09 04:59:34;;;;;;;26.10;10.80;;;;;;;4.66;45.34;100843.52;107531;1259;60751;-64
2023/01/09 05:02:01;;;;;;;22.60;8.70;;;;;;;4.66;45.00;100841.79;107636;1259;60288;-64
2023/01/09 05:04:28;;;;;;;27.70;11.80;;;;;;;4.56;44.87;100836.25;107574;1259;73982;-65
2023/01/09 05:06:55;;;;;;;26.90;12.00;;;;;;;4.80;44.30;100840.73;107625;1258;72670;-64
2023/01/09 05:09:22;;;;;;;21.90;10.00;;;;;;;4.84;44.27;100844.73;107635;1259;74574;-65
2023/01/09 05:11:49;;;;;;;26.50;11.50;;;;;;;4.92;44.20;100847.83;107613;1260;62142;-63
2023/01/09 05:14:16;;;;;;;20.60;8.90;;;;;;;4.69;44.20;100850.66;107646;1259;62219;-64
2023/01/09 05:16:43;;;;;;;26.90;11.00;;;;;;;4.43;44.93;100851.02;107579;1259;72206;-64
2023/01/09 05:19:10;;;;;;;31.30;11.80;;;;;;;4.57;44.25;100846.67;107656;1259;72675;-64
2023/01/09 05:21:37;;;;;;;26.80;10.60;;;;;;;4.41;44.58;100848.95;107560;1259;72567;-65
2023/01/09 05:24:04;;;;;;;28.60;11.40;;;;;;;4.30;45.32;100847.91;107617;1259;61352;-65
2023/01/09 05:26:31;;;;;;;29.00;10.20;;;;;;;4.38;45.04;100847.02;107686;1259;61407;-64
2023/01/09 05:28:58;;;;;;;25.80;11.10;;;;;;;4.34;45.30;100852.08;107672;1263;74733;-65
2023/01/09 05:31:25;;;;;;;23.70;10.90;;;;;;;4.65;44.97;100852.05;107545;1259;71486;-65
2023/01/09 05:33:52;;;;;;;22.90;10.90;;;;;;;4.58;45.50;100848.92;107658;1259;74655;-65
2023/01/09 05:36:19;;;;;;;28.20;11.80;;;;;;;4.77;45.53;100845.08;107640;1260;63162;-64
2023/01/09 05:38:46;;;;;;;23.10;10.70;;;;;;;4.58;45.64;100846.84;107576;1259;62692;-65
2023/01/09 05:41:13;;;;;;;28.10;10.70;;;;;;;5.12;44.84;100835.41;107632;1259;76016;-66
2023/01/09 05:43:39;;;;;;;10.60;6.50;;;;;;;4.93;45.08;100829.02;107580;1259;72277;-65
2023/01/09 05:46:06;;;;;;;25.00;11.80;;;;;;;4.57;45.32;100828.06;107685;1259;74821;-64
2023/01/09 05:48:33;;;;;;;27.80;11.40;;;;;;;4.89;44.81;100833.21;107585;1259;63958;-66
2023/01/09 05:51:00;;;;;;;30.90;13.50;;;;;;;4.95;44.37;100827.99;107593;1259;61032;-64
2023/01/09 05:53:27;;;;;;;28.40;11.40;;;;;;;4.50;45.47;100823.38;107668;1260;76162;-66
2023/01/09 05:55:54;;;;;;;27.60;11.10;;;;;;;4.47;45.57;100828.27;107623;1259;72788;-66
2023/01/09 05:58:21;;;;;;;25.00;11.00;;;;;;;4.72;45.01;100829.62;107564;1259;75148;-66
2023/01/09 06:00:48;;;;;;;29.90;11.80;;;;;;;4.67;44.92;100829.09;107652;1258;60268;-65
2023/01/09 06:03:16;;;;;;;25.40;11.10;;;;;;;5.44;44.32;100822.36;107584;1259;60253;-66
2023/01/09 06:05:43;;;;;;;28.80;11.90;;;;;;;5.71;42.95;100826.27;107609;1259;75622;-65
2023/01/09 06:08:10;;;;;;;25.00;11.50;;;;;;;5.46;43.24;100830.39;107594;1259;72492;-65
2023/01/09 06:10:37;;;;;;;26.10;11.80;;;;;;;5.87;42.59;100830.20;107689;1259;72612;-65
2023/01/09 06:13:03;;;;;;;22.80;9.50;;;;;;;6.59;41.03;100831.90;107659;1259;62536;-65
2023/01/09 06:15:30;;;;;;;33.20;13.50;;;;;;;6.49;41.13;100827.63;107688;1259;61460;-65
2023/01/09 06:17:57;;;;;;;36.60;13.30;;;;;;;6.51;40.79;100824.98;107660;1259;75929;-65
2023/01/09 06:20:24;;;;;;;27.80;11.80;;;;;;;6.38;41.24;100821.78;107636;1259;72795;-64
2023/01/09 06:22:52;;;;;;;35.30;12.80;;;;;;;6.11;41.94;100821.50;107649;1263;74511;-65
2023/01/09 06:25:18;;;;;;;34.90;13.30;;;;;;;5.66;42.48;100823.85;107678;1259;62583;-64
2023/01/09 06:27:45;;;;;;;38.40;13.40;;;;;;;6.41;42.77;100819.84;107610;1259;61466;-66
2023/01/09 06:30:12;;;;;;;27.80;11.50;;;;;;;7.19;40.62;100817.29;107603;1259;72784;-65
2023/01/09 06:32:39;;;;;;;28.10;12.10;;;;;;;7.49;39.36;100816.40;107586;1259;72396;-64
2023/01/09 06:35:06;;;;;;;36.30;14.20;;;;;;;7.41;39.09;100810.73;107611;1259;72093;-64
2023/01/09 06:37:33;;;;;;;30.60;13.80;;;;;;;7.45;38.90;100805.42;107586;1259;62091;-66
2023/01/09 06:40:00;;;;;;;34.00;13.50;;;;;;;7.42;39.03;100811.95;107654;1259;61447;-66
2023/01/09 06:42:27;;;;;;;27.90;12.20;;;;;;;7.02;39.25;100808.42;107605;1259;74998;-66
2023/01/09 06:44:54;;;;;;;32.70;14.20;;;;;;;6.81;39.57;100812.66;107615;1259;72657;-65
2023/01/09 06:47:21;;;;;;;37.10;14.70;;;;;;;6.93;39.89;100806.60;107638;1261;74536;-67
2023/01/09 06:49:47;;;;;;;27.50;12.60;;;;;;;6.52;40.72;100808.92;107750;1259;60798;-64
2023/01/09 06:52:14;;;;;;;28.30;12.30;;;;;;;6.88;40.16;100808.55;107699;1258;60363;-65
2023/01/09 06:54:41;;;;;;;27.50;12.50;;;;;;;6.77;40.22;100810.44;107612;1262;75700;-66
2023/01/09 06:57:08;;;;;;;31.70;12.60;;;;;;;6.93;40.07;100803.64;107696;1259;70868;-64
2023/01/09 06:59:35;;;;;;;31.10;13.80;;;;;;;6.96;39.80;100800.27;107601;1262;71847;-65
2023/01/09 07:02:02;;;;;;;29.20;12.10;;;;;;;6.99;39.79;100802.00;107614;1259;63716;-65
2023/01/09 07:04:30;;;;;;;37.10;14.60;;;;;;;7.15;39.38;100794.13;107656;1259;62657;-66
2023/01/09 07:06:56;;;;;;;29.30;13.20;;;;;;;7.05;39.70;100791.80;107651;1259;75899;-65
2023/01/09 07:09:23;;;;;;;24.50;9.50;;;;;;;7.25;39.43;100796.60;107614;1259;70960;-66
2023/01/09 07:11:50;;;;;;;72.20;24.00;;;;;;;6.74;40.38;100795.64;107665;1259;72990;-65
2023/01/09 07:14:17;;;;;;;45.00;15.10;;;;;;;6.83;40.17;100788.55;107567;1261;63879;-66
2023/01/09 07:16:43;;;;;;;39.70;15.30;;;;;;;6.85;40.32;100787.48;107613;1263;61515;-64
2023/01/09 07:19:10;;;;;;;36.90;15.70;;;;;;;7.30;40.08;100795.16;107563;1259;74249;-63
2023/01/09 07:21:37;;;;;;;35.90;13.70;;;;;;;7.24;40.04;100793.84;107620;1259;72570;-66
2023/01/09 07:24:04;;;;;;;34.20;15.10;;;;;;;7.57;39.89;100789.90;107569;1259;74659;-65
2023/01/09 07:26:31;;;;;;;34.60;14.40;;;;;;;8.03;39.36;100790.79;107543;1259;62881;-66
2023/01/09 07:28:57;;;;;;;28.20;11.80;;;;;;;7.78;39.87;100786.10;107709;1259;62265;-66
2023/01/09 07:31:24;;;;;;;28.10;12.60;;;;;;;7.35;40.67;100790.54;107593;1259;75547;-64
2023/01/09 07:33:51;;;;;;;25.00;12.60;;;;;;;7.55;40.13;100785.18;107586;1259;69900;-65
2023/01/09 07:36:18;;;;;;;29.50;13.30;;;;;;;8.11;39.24;100789.42;107619;1259;74605;-66
2023/01/09 07:50:42;;;;;;;27.70;12.40;;;;;;;6.03;43.07;100797.90;105647;1282;613668;-65
2023/01/09 07:53:09;;;;;;;29.90;12.50;;;;;;;7.32;40.61;100802.61;107115;1267;103389;-65
2023/01/09 07:55:36;;;;;;;26.50;9.80;;;;;;;7.35;40.74;100799.79;107294;1269;60905;-65
2023/01/09 07:58:03;;;;;;;37.20;13.60;;;;;;;7.07;41.43;100797.01;107259;1266;74621;-65
2023/01/09 08:00:29;;;;;;;31.60;13.80;;;;;;;7.56;40.66;100797.08;107677;1260;70682;-65
2023/01/09 08:02:58;;;;;;;29.40;11.60;;;;;;;7.73;40.80;100791.41;107634;1259;72856;-68
2023/01/09 08:05:25;;;;;;;28.20;12.60;;;;;;;7.19;41.66;100790.56;107614;1259;61943;-66
2023/01/09 08:07:52;;;;;;;23.00;10.20;;;;;;;7.56;41.24;100781.86;107642;1260;61186;-66
2023/01/09 08:10:19;;;;;;;25.90;11.30;;;;;;;7.82;41.31;100778.32;107656;1257;74604;-64
2023/01/09 08:12:46;;;;;;;31.80;12.30;;;;;;;7.71;41.19;100774.14;107620;1260;70943;-66
2023/01/09 08:15:14;;;;;;;29.30;12.50;;;;;;;7.57;41.71;100771.89;107693;1258;75200;-66
2023/01/09 08:17:41;;;;;;;20.60;9.40;;;;;;;7.51;41.78;100777.05;107654;1260;61218;-66
2023/01/09 08:20:12;;;;;;;27.00;11.20;;;;;;;6.60;43.56;100780.78;107706;1262;61263;-66
2023/01/09 08:22:48;;;;;;;23.90;10.00;;;;;;;7.19;43.20;100779.70;107607;1258;73036;-65
2023/01/09 08:25:15;;;;;;;27.20;11.30;;;;;;;7.59;42.07;100773.27;107534;1260;72118;-64
2023/01/09 08:27:42;;;;;;;30.90;11.60;;;;;;;7.77;42.32;100777.71;107667;1262;73532;-64
2023/01/09 08:30:10;;;;;;;19.40;9.30;;;;;;;7.97;42.06;100774.59;107635;1260;64527;-64
2023/01/09 08:32:37;;;;;;;25.20;10.20;;;;;;;7.21;42.98;100771.51;107654;1261;62674;-67
2023/01/09 08:35:05;;;;;;;30.10;10.70;;;;;;;6.87;43.66;100778.02;107596;1260;74847;-65
2023/01/09 08:37:32;;;;;;;22.60;8.90;;;;;;;7.27;43.38;100769.68;107696;1259;72590;-66
2023/01/09 08:39:59;;;;;;;24.40;9.80;;;;;;;7.22;43.80;100770.09;107682;1260;74902;-66
2023/01/09 09:07:05;;;;;;;20.10;10.00;;;;;;;7.40;43.31;100733.86;107485;1260;62647;-66
2023/01/09 09:09:32;;;;;;;30.10;9.60;;;;;;;7.18;43.83;100729.25;107586;1261;74986;-65
2023/01/09 09:11:59;;;;;;;22.20;7.70;;;;;;;6.72;44.65;100723.93;107626;1260;71235;-65
2023/01/09 09:17:11;;;;;;;27.40;10.80;;;;;;;6.84;44.52;100721.14;107495;1261;62202;-65
2023/01/09 09:19:40;;;;;;;24.50;10.40;;;;;;;7.19;43.62;100721.58;107530;1259;61465;-65
2023/01/09 09:22:07;;;;;;;26.90;11.20;;;;;;;6.43;45.12;100710.99;107538;1260;75401;-66
2023/01/09 09:24:33;;;;;;;28.90;12.30;;;;;;;6.90;44.25;100706.95;107555;1259;72904;-65
2023/01/09 09:27:00;;;;;;;25.40;11.20;;;;;;;7.00;44.05;100709.45;107556;1260;74883;-66
2023/01/09 09:29:27;;;;;;;32.40;12.40;;;;;;;7.74;42.75;100716.23;107637;1260;63107;-66
2023/01/09 09:31:54;;;;;;;25.70;11.60;;;;;;;7.87;42.55;100713.23;107488;1263;60534;-62
2023/01/09 09:34:22;;;;;;;22.40;10.40;;;;;;;8.13;42.10;100710.16;107729;1260;75250;-66
2023/01/09 09:36:49;;;;;;;26.70;11.30;;;;;;;7.97;42.15;100710.27;107601;1260;72343;-66
2023/01/09 09:39:16;;;;;;;20.70;8.40;;;;;;;7.43;43.08;100710.23;107698;1257;74792;-64
2023/01/09 09:45:27;;;;;;;18.90;8.30;;;;;;;7.66;42.96;100706.05;107580;1262;61712;-66
2023/01/09 09:48:06;;;;;;;28.40;8.30;;;;;;;7.82;43.02;100703.00;107643;1260;75161;-66
2023/01/09 09:50:39;;;;;;;28.60;12.00;;;;;;;8.48;42.16;100694.14;107617;1260;71194;-66
2023/01/09 09:53:37;;;;;;;21.80;11.00;;;;;;;8.78;41.21;100687.59;107596;1260;72917;-66
2023/01/09 09:56:03;;;;;;;23.80;10.40;;;;;;;8.73;41.38;100688.58;107620;1260;63569;-67
2023/01/09 09:58:37;;;;;;;20.00;11.50;;;;;;;9.35;40.88;100684.96;107520;1260;59373;-64
2023/01/09 10:01:05;;;;;;;30.60;12.20;;;;;;;9.33;40.40;100689.17;107632;1258;74166;-66
2023/01/09 10:03:54;;;;;;;30.10;11.60;;;;;;;9.22;40.46;100691.56;107712;1260;71259;-65
2023/01/09 10:06:29;;;;;;;23.20;11.40;;;;;;;9.13;40.27;100686.48;107604;1260;75039;-64
2023/01/09 14:20:19;;;;;;;34.10;16.10;;;;;;;-1.33;100.00;100634.43;106271;1292;612397;-95
2023/01/09 14:22:56;;;;;;;29.80;14.60;;;;;;;0.99;100.00;100629.86;107135;1269;61740;-67
2023/01/09 14:25:43;;;;;;;38.60;16.00;;;;;;;1.49;100.00;100629.44;106955;1272;61621;-66
2023/01/09 14:28:21;;;;;;;27.50;13.30;;;;;;;1.89;100.00;100627.65;107128;1272;72307;-65
2023/01/09 14:30:53;;;;;;;36.60;14.60;;;;;;;2.29;100.00;100620.06;107130;1270;71096;-65
2023/01/09 14:33:21;;;;;;;42.00;18.10;;;;;;;2.19;100.00;100622.10;107006;1267;203821;-67
2023/01/09 14:36:14;;;;;;;35.50;14.30;;;;;;;2.71;100.00;100620.92;107145;1267;60779;-66
2023/01/09 14:38:47;;;;;;;44.40;20.70;;;;;;;2.87;100.00;100617.67;107140;1269;61331;-65
2023/01/09 14:41:14;;;;;;;28.40;12.10;;;;;;;2.96;100.00;100620.30;107126;1269;73412;-66
2023/01/09 14:43:58;;;;;;;22.80;11.10;;;;;;;3.12;100.00;100620.83;107159;1269;69598;-65
2023/01/09 14:46:24;;;;;;;21.70;11.10;;;;;;;3.22;100.00;100621.55;107090;1270;72098;-65
2023/01/09 14:48:59;;;;;;;25.40;10.20;;;;;;;3.56;100.00;100625.89;107100;1267;60703;-65
2023/01/09 14:51:26;;;;;;;20.70;10.40;;;;;;;3.56;100.00;100623.11;107769;1257;60130;-65
2023/01/09 14:53:53;;;;;;;24.80;10.30;;;;;;;3.67;100.00;100626.23;107883;1259;74312;-65
2023/01/09 14:56:25;;;;;;;16.50;9.20;;;;;;;3.50;100.00;100626.41;107932;1258;70446;-66
2023/01/09 14:59:09;;;;;;;22.60;9.90;;;;;;;3.63;100.00;100636.14;107979;1256;73712;-66
2023/01/09 15:01:36;;;;;;;28.30;12.50;;;;;;;3.76;100.00;100639.77;107933;1255;61909;-65
2023/01/09 15:04:05;;;;;;;20.20;10.80;;;;;;;3.62;100.00;100639.26;107814;1262;61306;-65
2023/01/09 15:06:39;;;;;;;16.20;7.00;;;;;;;3.61;100.00;100640.82;107923;1256;72891;-65
2023/01/09 15:09:20;;;;;;;19.90;9.80;;;;;;;3.43;100.00;100636.29;107925;1260;71175;-66
2023/01/09 15:11:47;;;;;;;22.20;9.90;;;;;;;3.56;100.00;100639.79;107911;1256;73781;-66
2023/01/09 15:14:40;;;;;;;24.40;9.80;;;;;;;3.83;100.00;100636.81;107864;1257;62198;-65
2023/01/09 15:17:21;;;;;;;28.80;12.30;;;;;;;3.75;100.00;100638.20;107919;1256;60316;-66
2023/01/09 15:19:48;;;;;;;19.00;8.90;;;;;;;3.93;100.00;100638.52;107808;1257;74057;-66
2023/01/09 15:22:22;;;;;;;26.80;10.60;;;;;;;3.88;100.00;100639.75;107772;1258;70265;-65
2023/01/09 15:24:49;;;;;;;23.10;10.70;;;;;;;3.91;100.00;100635.92;107811;1257;73363;-66
2023/01/09 15:27:20;;;;;;;21.10;9.30;;;;;;;4.17;100.00;100626.30;107741;1258;62397;-65
2023/01/09 15:29:47;;;;;;;24.30;10.50;;;;;;;4.23;100.00;100625.08;107735;1260;59966;-65
2023/01/09 15:32:25;;;;;;;28.30;10.70;;;;;;;4.00;100.00;100629.31;107760;1259;73401;-66
2023/01/09 15:34:53;;;;;;;19.90;9.20;;;;;;;3.88;100.00;100635.75;107787;1259;69498;-66
2023/01/09 15:37:28;;;;;;;23.40;11.20;;;;;;;4.02;100.00;100624.78;107826;1258;73887;-65
2023/01/09 15:39:56;;;;;;;19.00;9.20;;;;;;;4.24;100.00;100623.00;107656;1258;61579;-66
2023/01/09 15:45:31;;;;;;;30.20;11.90;;;;;;;3.69;100.00;100618.77;107761;1258;73981;-66
2023/01/09 15:48:16;;;;;;;23.60;11.00;;;;;;;3.83;100.00;100614.92;107783;1257;71578;-66
2023/01/09 15:50:47;;;;;;;20.70;9.50;;;;;;;4.12;100.00;100609.13;107744;1258;73961;-67
2023/01/09 15:53:22;;;;;;;18.70;9.80;;;;;;;4.09;100.00;100614.17;107727;1261;59412;-66
2023/01/09 15:56:23;;;;;;;21.50;10.30;;;;;;;4.14;100.00;100610.50;107817;1257;61366;-66
2023/01/09 15:58:51;;;;;;;24.50;9.60;;;;;;;4.56;99.14;100611.21;107844;1259;74091;-66
2023/01/09 16:01:31;;;;;;;32.50;12.90;;;;;;;4.66;98.52;100610.47;107810;1258;70260;-66
2023/01/09 16:04:05;;;;;;;35.30;14.10;;;;;;;4.81;97.60;100609.52;107794;1257;72022;-66
2023/01/09 16:06:34;;;;;;;25.60;12.10;;;;;;;4.94;90.22;100607.02;107704;1260;61222;-66
2023/01/09 16:09:00;;;;;;;23.10;10.40;;;;;;;4.82;84.58;100602.20;107804;1262;61078;-64
2023/01/09 16:11:32;;;;;;;25.00;11.40;;;;;;;4.68;84.25;100614.27;107785;1261;74281;-65
2023/01/09 16:14:12;;;;;;;20.80;9.80;;;;;;;4.63;84.27;100612.39;107786;1262;70755;-65
2023/01/09 16:16:39;;;;;;;20.90;9.40;;;;;;;4.60;84.59;100615.72;107660;1257;72379;-65
2023/01/09 16:19:29;;;;;;;19.60;8.70;;;;;;;4.83;84.29;100617.16;107688;1261;62387;-66
2023/01/09 16:22:00;;;;;;;21.70;9.80;;;;;;;5.19;76.92;100614.66;107551;1260;61409;-66
2023/01/09 16:24:38;;;;;;;20.60;10.20;;;;;;;5.05;72.47;100611.63;107708;1257;74061;-67